sensor_id;sensor_type;location;lat;lon;timestamp;pressure;altitude;pressure_sealevel;temperature;humidity
65175;BME280;51761;42.126;24.752;2023-02-11T00:00:55;101559.81;;;-3.07;61.38
65175;BME280;51761;42.126;24.752;2023-02-11T00:03:20;101564.81;;;-3.13;61.63
65175;BME280;51761;42.126;24.752;2023-02-11T00:05:56;101562.59;;;-3.12;61.47
65175;BME280;51761;42.126;24.752;2023-02-11T00:08:21;101569.41;;;-3.09;61.94
65175;BME280;51761;42.126;24.752;2023-02-11T00:10:54;101557.63;;;-3.38;63.01
65175;BME280;51761;42.126;24.752;2023-02-11T00:13:20;101568.97;;;-3.21;62.77
65175;BME280;51761;42.126;24.752;2023-02-11T00:15:46;101571.06;;;-3.13;61.77
65175;BME280;51761;42.126;24.752;2023-02-11T00:18:12;101547.09;;;-3.21;61.96
65175;BME280;51761;42.126;24.752;2023-02-11T00:20:38;101557.13;;;-3.12;62.66
65175;BME280;51761;42.126;24.752;2023-02-11T00:23:04;101577.84;;;-3.06;62.25
65175;BME280;51761;42.126;24.752;2023-02-11T00:25:29;101569.91;;;-3.02;61.97
65175;BME280;51761;42.126;24.752;2023-02-11T00:27:55;101546.31;;;-3.26;61.88
65175;BME280;51761;42.126;24.752;2023-02-11T00:30:20;101564.72;;;-3.04;61.50
65175;BME280;51761;42.126;24.752;2023-02-11T00:32:46;101571.31;;;-3.10;61.78
65175;BME280;51761;42.126;24.752;2023-02-11T00:35:11;101555.88;;;-3.24;62.14
65175;BME280;51761;42.126;24.752;2023-02-11T00:37:37;101548.97;;;-3.16;61.42
65175;BME280;51761;42.126;24.752;2023-02-11T00:40:03;101560.88;;;-3.03;61.42
65175;BME280;51761;42.126;24.752;2023-02-11T00:42:29;101564.22;;;-3.11;62.13
65175;BME280;51761;42.126;24.752;2023-02-11T00:44:55;101574.25;;;-3.01;61.62
65175;BME280;51761;42.126;24.752;2023-02-11T00:47:20;101566.88;;;-3.01;61.38
65175;BME280;51761;42.126;24.752;2023-02-11T00:49:45;101557.75;;;-3.19;61.85
65175;BME280;51761;42.126;24.752;2023-02-11T00:52:11;101558.72;;;-3.06;61.95
65175;BME280;51761;42.126;24.752;2023-02-11T00:54:37;101557.41;;;-3.13;61.93
65175;BME280;51761;42.126;24.752;2023-02-11T00:57:02;101565.06;;;-3.15;62.78
65175;BME280;51761;42.126;24.752;2023-02-11T00:59:28;101547.41;;;-3.22;62.60
65175;BME280;51761;42.126;24.752;2023-02-11T01:01:53;101559.88;;;-3.12;62.52
65175;BME280;51761;42.126;24.752;2023-02-11T01:04:19;101559.34;;;-3.13;62.42
65175;BME280;51761;42.126;24.752;2023-02-11T01:06:44;101545.94;;;-3.15;62.14
65175;BME280;51761;42.126;24.752;2023-02-11T01:09:10;101561.69;;;-3.02;61.97
65175;BME280;51761;42.126;24.752;2023-02-11T01:11:35;101561.22;;;-3.09;62.70
65175;BME280;51761;42.126;24.752;2023-02-11T01:14:01;101550.56;;;-3.11;62.91
65175;BME280;51761;42.126;24.752;2023-02-11T01:16:26;101526.91;;;-3.25;61.75
65175;BME280;51761;42.126;24.752;2023-02-11T01:18:52;101551.91;;;-3.08;62.47
65175;BME280;51761;42.126;24.752;2023-02-11T01:21:18;101548.66;;;-3.10;61.97
65175;BME280;51761;42.126;24.752;2023-02-11T01:23:43;101523.38;;;-3.25;61.86
65175;BME280;51761;42.126;24.752;2023-02-11T01:26:09;101544.72;;;-2.99;63.30
65175;BME280;51761;42.126;24.752;2023-02-11T01:28:34;101538.94;;;-2.93;61.71
65175;BME280;51761;42.126;24.752;2023-02-11T01:31:01;101523.03;;;-3.19;61.75
65175;BME280;51761;42.126;24.752;2023-02-11T01:33:27;101518.72;;;-3.25;61.98
65175;BME280;51761;42.126;24.752;2023-02-11T01:35:53;101514.44;;;-3.36;63.37
65175;BME280;51761;42.126;24.752;2023-02-11T01:38:24;101534.31;;;-3.25;63.13
65175;BME280;51761;42.126;24.752;2023-02-11T01:40:54;101506.94;;;-3.20;63.42
65175;BME280;51761;42.126;24.752;2023-02-11T01:43:20;101522.72;;;-3.13;63.17
65175;BME280;51761;42.126;24.752;2023-02-11T01:48:18;101519.06;;;-3.03;61.88
65175;BME280;51761;42.126;24.752;2023-02-11T01:50:46;101513.59;;;-3.03;62.18
65175;BME280;51761;42.126;24.752;2023-02-11T01:53:13;101491.97;;;-3.28;62.78
65175;BME280;51761;42.126;24.752;2023-02-11T01:55:58;101514.25;;;-3.11;62.78
65175;BME280;51761;42.126;24.752;2023-02-11T01:58:44;101508.56;;;-3.19;63.04
65175;BME280;51761;42.126;24.752;2023-02-11T02:01:15;101507.88;;;-3.35;63.51
65175;BME280;51761;42.126;24.752;2023-02-11T02:03:44;101526.66;;;-3.23;63.99
65175;BME280;51761;42.126;24.752;2023-02-11T02:06:22;101514.88;;;-3.24;63.41
65175;BME280;51761;42.126;24.752;2023-02-11T02:08:54;101499.59;;;-3.25;62.57
65175;BME280;51761;42.126;24.752;2023-02-11T02:11:22;101518.16;;;-3.22;63.17
65175;BME280;51761;42.126;24.752;2023-02-11T02:13:48;101509.41;;;-3.24;63.91
65175;BME280;51761;42.126;24.752;2023-02-11T02:16:16;101505.38;;;-3.31;63.97
65175;BME280;51761;42.126;24.752;2023-02-11T02:33:39;101494.75;;;-4.10;65.71
65175;BME280;51761;42.126;24.752;2023-02-11T02:39:07;101518.09;;;-4.37;65.24
65175;BME280;51761;42.126;24.752;2023-02-11T02:41:34;101504.81;;;-4.64;65.58
65175;BME280;51761;42.126;24.752;2023-02-11T02:44:02;101529.09;;;-4.72;65.54
65175;BME280;51761;42.126;24.752;2023-02-11T02:46:32;101520.91;;;-4.67;65.54
65175;BME280;51761;42.126;24.752;2023-02-11T02:48:58;101525.25;;;-4.61;65.91
65175;BME280;51761;42.126;24.752;2023-02-11T03:00:34;101540.34;;;-5.03;67.54
65175;BME280;51761;42.126;24.752;2023-02-11T03:06:07;101526.91;;;-4.75;66.77
65175;BME280;51761;42.126;24.752;2023-02-11T03:08:50;101527.72;;;-4.65;67.53
65175;BME280;51761;42.126;24.752;2023-02-11T03:11:18;101518.22;;;-4.87;67.70
65175;BME280;51761;42.126;24.752;2023-02-11T03:13:46;101523.63;;;-4.72;67.48
65175;BME280;51761;42.126;24.752;2023-02-11T03:16:16;101538.06;;;-4.67;67.24
65175;BME280;51761;42.126;24.752;2023-02-11T03:18:48;101530.47;;;-4.74;67.23
65175;BME280;51761;42.126;24.752;2023-02-11T03:21:16;101536.41;;;-4.63;67.53
65175;BME280;51761;42.126;24.752;2023-02-11T03:23:49;101526.34;;;-4.57;66.92
65175;BME280;51761;42.126;24.752;2023-02-11T03:32:18;101526.50;;;-4.34;66.48
65175;BME280;51761;42.126;24.752;2023-02-11T03:34:52;101534.13;;;-4.31;66.51
65175;BME280;51761;42.126;24.752;2023-02-11T03:40:19;101525.97;;;-4.36;66.89
65175;BME280;51761;42.126;24.752;2023-02-11T03:42:49;101517.72;;;-4.26;66.37
65175;BME280;51761;42.126;24.752;2023-02-11T03:45:19;101529.41;;;-4.10;65.58
65175;BME280;51761;42.126;24.752;2023-02-11T03:47:50;101534.31;;;-4.12;65.80
65175;BME280;51761;42.126;24.752;2023-02-11T03:50:18;101504.09;;;-4.26;66.29
65175;BME280;51761;42.126;24.752;2023-02-11T03:52:46;101534.84;;;-4.05;65.96
65175;BME280;51761;42.126;24.752;2023-02-11T03:55:16;101528.13;;;-4.23;66.91
65175;BME280;51761;42.126;24.752;2023-02-11T03:57:42;101530.81;;;-4.18;66.88
65175;BME280;51761;42.126;24.752;2023-02-11T04:00:09;101533.22;;;-4.11;66.62
65175;BME280;51761;42.126;24.752;2023-02-11T04:02:36;101533.22;;;-4.06;66.84
65175;BME280;51761;42.126;24.752;2023-02-11T04:05:02;101528.50;;;-3.91;66.01
65175;BME280;51761;42.126;24.752;2023-02-11T04:07:28;101531.78;;;-3.94;66.10
65175;BME280;51761;42.126;24.752;2023-02-11T04:09:54;101523.06;;;-3.96;65.84
65175;BME280;51761;42.126;24.752;2023-02-11T04:12:19;101507.06;;;-4.17;66.27
65175;BME280;51761;42.126;24.752;2023-02-11T04:14:45;101544.06;;;-3.96;66.64
65175;BME280;51761;42.126;24.752;2023-02-11T04:17:11;101541.44;;;-4.16;67.11
65175;BME280;51761;42.126;24.752;2023-02-11T04:19:37;101522.09;;;-4.20;65.79
65175;BME280;51761;42.126;24.752;2023-02-11T04:22:03;101521.59;;;-4.32;66.26
65175;BME280;51761;42.126;24.752;2023-02-11T04:24:29;101531.91;;;-4.19;65.94
65175;BME280;51761;42.126;24.752;2023-02-11T04:26:54;101522.72;;;-4.43;67.87
65175;BME280;51761;42.126;24.752;2023-02-11T04:29:20;101528.22;;;-4.58;68.13
65175;BME280;51761;42.126;24.752;2023-02-11T04:31:46;101520.59;;;-4.61;67.35
65175;BME280;51761;42.126;24.752;2023-02-11T04:34:12;101514.84;;;-4.49;67.10
65175;BME280;51761;42.126;24.752;2023-02-11T04:36:37;101523.03;;;-4.49;67.07
65175;BME280;51761;42.126;24.752;2023-02-11T04:39:03;101523.25;;;-4.36;66.48
65175;BME280;51761;42.126;24.752;2023-02-11T04:41:28;101522.16;;;-4.35;66.28
65175;BME280;51761;42.126;24.752;2023-02-11T04:43:54;101512.91;;;-4.44;66.52
65175;BME280;51761;42.126;24.752;2023-02-11T04:46:19;101506.91;;;-4.41;66.67
65175;BME280;51761;42.126;24.752;2023-02-11T04:48:45;101487.28;;;-4.43;66.37
65175;BME280;51761;42.126;24.752;2023-02-11T04:51:10;101518.06;;;-4.32;66.72
65175;BME280;51761;42.126;24.752;2023-02-11T04:53:36;101485.69;;;-4.49;66.77
65175;BME280;51761;42.126;24.752;2023-02-11T04:56:01;101507.47;;;-4.44;67.31
65175;BME280;51761;42.126;24.752;2023-02-11T04:58:27;101509.59;;;-4.36;67.12
65175;BME280;51761;42.126;24.752;2023-02-11T05:00:52;101509.38;;;-4.39;67.51
65175;BME280;51761;42.126;24.752;2023-02-11T05:03:19;101517.28;;;-4.43;67.39
65175;BME280;51761;42.126;24.752;2023-02-11T05:05:44;101471.03;;;-4.68;67.94
65175;BME280;51761;42.126;24.752;2023-02-11T05:08:10;101469.94;;;-4.67;67.95
65175;BME280;51761;42.126;24.752;2023-02-11T05:10:35;101508.28;;;-4.48;68.23
65175;BME280;51761;42.126;24.752;2023-02-11T05:13:01;101478.38;;;-4.63;68.27
65175;BME280;51761;42.126;24.752;2023-02-11T05:15:27;101502.78;;;-4.33;67.41
65175;BME280;51761;42.126;24.752;2023-02-11T05:17:53;101489.69;;;-4.31;67.19
65175;BME280;51761;42.126;24.752;2023-02-11T05:20:19;101476.66;;;-4.44;66.99
65175;BME280;51761;42.126;24.752;2023-02-11T05:22:44;101509.06;;;-4.38;67.99
65175;BME280;51761;42.126;24.752;2023-02-11T05:25:10;101509.03;;;-4.23;67.49
65175;BME280;51761;42.126;24.752;2023-02-11T05:27:35;101503.09;;;-4.45;68.26
65175;BME280;51761;42.126;24.752;2023-02-11T05:30:01;101505.25;;;-4.37;68.71
65175;BME280;51761;42.126;24.752;2023-02-11T05:32:27;101511.22;;;-4.25;73.73
65175;BME280;51761;42.126;24.752;2023-02-11T05:34:52;101513.63;;;-4.18;70.45
65175;BME280;51761;42.126;24.752;2023-02-11T05:37:18;101492.13;;;-4.25;70.01
65175;BME280;51761;42.126;24.752;2023-02-11T05:39:43;101520.72;;;-3.74;66.34
65175;BME280;51761;42.126;24.752;2023-02-11T05:42:09;101513.91;;;-3.71;66.85
65175;BME280;51761;42.126;24.752;2023-02-11T05:44:34;101514.25;;;-3.44;65.82
65175;BME280;51761;42.126;24.752;2023-02-11T05:47:00;101505.16;;;-3.35;64.34
65175;BME280;51761;42.126;24.752;2023-02-11T05:49:25;101519.34;;;-3.05;63.76
65175;BME280;51761;42.126;24.752;2023-02-11T05:51:51;101522.47;;;-2.88;63.56
65175;BME280;51761;42.126;24.752;2023-02-11T05:54:16;101502.16;;;-3.05;62.23
65175;BME280;51761;42.126;24.752;2023-02-11T05:56:42;101498.53;;;-3.01;64.66
65175;BME280;51761;42.126;24.752;2023-02-11T05:59:07;101527.38;;;-2.61;61.31
65175;BME280;51761;42.126;24.752;2023-02-11T06:01:33;101527.78;;;-1.84;59.86
65175;BME280;51761;42.126;24.752;2023-02-11T06:03:58;101522.53;;;-0.80;56.63
65175;BME280;51761;42.126;24.752;2023-02-11T06:06:24;101523.06;;;-0.10;54.15
65175;BME280;51761;42.126;24.752;2023-02-11T06:08:50;101519.25;;;0.83;50.24
65175;BME280;51761;42.126;24.752;2023-02-11T06:11:16;101492.56;;;1.14;48.58
65175;BME280;51761;42.126;24.752;2023-02-11T06:13:42;101516.50;;;1.83;47.42
65175;BME280;51761;42.126;24.752;2023-02-11T06:16:08;101520.19;;;2.17;45.82
65175;BME280;51761;42.126;24.752;2023-02-11T06:18:34;101514.06;;;2.80;44.47
65175;BME280;51761;42.126;24.752;2023-02-11T06:20:59;101522.00;;;3.07;43.87
65175;BME280;51761;42.126;24.752;2023-02-11T06:23:25;101509.41;;;3.34;43.27
65175;BME280;51761;42.126;24.752;2023-02-11T06:25:51;101494.66;;;3.30;42.78
65175;BME280;51761;42.126;24.752;2023-02-11T06:28:16;101517.19;;;3.41;43.12
65175;BME280;51761;42.126;24.752;2023-02-11T06:30:42;101509.97;;;3.94;73.21
65175;BME280;51761;42.126;24.752;2023-02-11T06:33:07;101512.25;;;6.67;90.00
65175;BME280;51761;42.126;24.752;2023-02-11T06:35:33;101492.78;;;8.45;90.71
65175;BME280;51761;42.126;24.752;2023-02-11T06:38:00;101510.13;;;9.97;75.21
65175;BME280;51761;42.126;24.752;2023-02-11T06:40:25;101505.50;;;11.15;68.24
65175;BME280;51761;42.126;24.752;2023-02-11T06:42:51;101514.50;;;11.68;37.32
65175;BME280;51761;42.126;24.752;2023-02-11T06:45:16;101502.47;;;11.31;30.73
65175;BME280;51761;42.126;24.752;2023-02-11T06:47:42;101516.19;;;10.77;30.62
65175;BME280;51761;42.126;24.752;2023-02-11T06:50:11;101520.88;;;9.95;30.86
65175;BME280;51761;42.126;24.752;2023-02-11T06:52:36;101504.91;;;9.29;31.38
65175;BME280;51761;42.126;24.752;2023-02-11T06:55:02;101521.19;;;9.08;31.78
65175;BME280;51761;42.126;24.752;2023-02-11T06:57:29;101506.25;;;8.43;32.20
65175;BME280;51761;42.126;24.752;2023-02-11T06:59:55;101510.50;;;8.06;32.97
65175;BME280;51761;42.126;24.752;2023-02-11T07:02:20;101512.25;;;7.95;33.60
65175;BME280;51761;42.126;24.752;2023-02-11T07:04:46;101506.56;;;7.46;34.35
65175;BME280;51761;42.126;24.752;2023-02-11T07:07:11;101487.34;;;7.25;34.29
65175;BME280;51761;42.126;24.752;2023-02-11T07:09:37;101512.63;;;7.36;34.56
65175;BME280;51761;42.126;24.752;2023-02-11T07:12:03;101509.38;;;7.18;34.67
65175;BME280;51761;42.126;24.752;2023-02-11T07:14:28;101505.94;;;7.09;34.71
65175;BME280;51761;42.126;24.752;2023-02-11T07:16:54;101510.56;;;7.33;34.66
65175;BME280;51761;42.126;24.752;2023-02-11T07:19:19;101484.47;;;7.22;35.70
65175;BME280;51761;42.126;24.752;2023-02-11T07:21:45;101496.78;;;7.52;34.55
65175;BME280;51761;42.126;24.752;2023-02-11T07:24:11;101488.44;;;7.36;35.50
65175;BME280;51761;42.126;24.752;2023-02-11T07:26:37;101496.94;;;7.43;34.91
65175;BME280;51761;42.126;24.752;2023-02-11T07:29:03;101479.25;;;7.20;35.33
65175;BME280;51761;42.126;24.752;2023-02-11T07:31:29;101490.34;;;7.78;34.09
65175;BME280;51761;42.126;24.752;2023-02-11T07:33:57;101493.22;;;7.97;33.22
65175;BME280;51761;42.126;24.752;2023-02-11T07:36:24;101493.44;;;8.08;34.14
65175;BME280;51761;42.126;24.752;2023-02-11T07:38:49;101499.81;;;8.08;33.90
65175;BME280;51761;42.126;24.752;2023-02-11T07:41:18;101491.13;;;8.25;32.89
65175;BME280;51761;42.126;24.752;2023-02-11T07:43:44;101489.97;;;8.26;32.20
65175;BME280;51761;42.126;24.752;2023-02-11T07:46:16;101474.63;;;8.01;33.99
65175;BME280;51761;42.126;24.752;2023-02-11T07:48:42;101496.59;;;8.06;33.54
65175;BME280;51761;42.126;24.752;2023-02-11T07:53:35;101490.31;;;8.09;33.14
65175;BME280;51761;42.126;24.752;2023-02-11T07:56:02;101486.72;;;7.93;32.14
65175;BME280;51761;42.126;24.752;2023-02-11T07:58:27;101489.00;;;7.88;32.78
65175;BME280;51761;42.126;24.752;2023-02-11T08:00:53;101494.56;;;7.73;32.73
65175;BME280;51761;42.126;24.752;2023-02-11T08:03:18;101483.50;;;7.91;34.24
65175;BME280;51761;42.126;24.752;2023-02-11T08:05:44;101482.50;;;8.30;32.17
65175;BME280;51761;42.126;24.752;2023-02-11T08:08:09;101483.28;;;8.15;32.63
65175;BME280;51761;42.126;24.752;2023-02-11T08:10:35;101472.72;;;8.05;33.36
65175;BME280;51761;42.126;24.752;2023-02-11T08:13:01;101476.41;;;8.09;32.19
65175;BME280;51761;42.126;24.752;2023-02-11T08:15:26;101477.56;;;8.08;33.32
65175;BME280;51761;42.126;24.752;2023-02-11T08:17:52;101475.94;;;8.57;32.90
65175;BME280;51761;42.126;24.752;2023-02-11T08:20:17;101456.75;;;8.52;31.81
65175;BME280;51761;42.126;24.752;2023-02-11T08:22:43;101469.19;;;8.96;31.59
65175;BME280;51761;42.126;24.752;2023-02-11T08:25:08;101457.66;;;9.17;33.20
65175;BME280;51761;42.126;24.752;2023-02-11T08:27:34;101457.63;;;8.75;32.88
65175;BME280;51761;42.126;24.752;2023-02-11T08:29:59;101457.69;;;8.60;32.18
65175;BME280;51761;42.126;24.752;2023-02-11T08:32:26;101452.84;;;8.38;33.19
65175;BME280;51761;42.126;24.752;2023-02-11T08:34:52;101435.25;;;8.91;32.57
65175;BME280;51761;42.126;24.752;2023-02-11T08:37:18;101452.91;;;9.17;32.02
65175;BME280;51761;42.126;24.752;2023-02-11T08:39:44;101443.31;;;8.58;33.22
65175;BME280;51761;42.126;24.752;2023-02-11T08:42:11;101453.03;;;9.24;32.25
65175;BME280;51761;42.126;24.752;2023-02-11T08:44:37;101448.28;;;9.25;32.51
65175;BME280;51761;42.126;24.752;2023-02-11T08:47:03;101442.44;;;9.33;32.44
65175;BME280;51761;42.126;24.752;2023-02-11T08:49:28;101435.13;;;9.25;32.45
65175;BME280;51761;42.126;24.752;2023-02-11T08:51:55;101438.41;;;9.08;32.98
65175;BME280;51761;42.126;24.752;2023-02-11T08:54:23;101437.91;;;8.84;34.07
65175;BME280;51761;42.126;24.752;2023-02-11T08:56:50;101435.13;;;9.25;33.54
65175;BME280;51761;42.126;24.752;2023-02-11T08:59:15;101431.78;;;9.61;33.13
65175;BME280;51761;42.126;24.752;2023-02-11T09:01:42;101428.13;;;10.05;32.03
65175;BME280;51761;42.126;24.752;2023-02-11T09:04:08;101434.31;;;10.18;31.86
65175;BME280;51761;42.126;24.752;2023-02-11T09:06:34;101432.19;;;10.67;32.10
65175;BME280;51761;42.126;24.752;2023-02-11T09:09:00;101418.44;;;10.84;31.40
65175;BME280;51761;42.126;24.752;2023-02-11T09:11:29;101419.53;;;11.09;31.03
65175;BME280;51761;42.126;24.752;2023-02-11T09:13:55;101420.00;;;11.14;30.33
65175;BME280;51761;42.126;24.752;2023-02-11T09:16:24;101402.06;;;10.83;29.99
65175;BME280;51761;42.126;24.752;2023-02-11T09:18:50;101398.50;;;10.86;30.74
65175;BME280;51761;42.126;24.752;2023-02-11T09:21:16;101421.22;;;10.81;31.67
65175;BME280;51761;42.126;24.752;2023-02-11T09:23:42;101413.38;;;11.33;30.66
65175;BME280;51761;42.126;24.752;2023-02-11T09:26:21;101412.28;;;11.44;28.25
65175;BME280;51761;42.126;24.752;2023-02-11T09:28:47;101396.97;;;11.28;29.61
65175;BME280;51761;42.126;24.752;2023-02-11T09:31:15;101401.31;;;11.65;29.10
65175;BME280;51761;42.126;24.752;2023-02-11T09:33:43;101397.88;;;11.42;29.03
65175;BME280;51761;42.126;24.752;2023-02-11T09:36:17;101382.97;;;11.28;28.71
65175;BME280;51761;42.126;24.752;2023-02-11T09:38:44;101394.94;;;11.28;28.86
65175;BME280;51761;42.126;24.752;2023-02-11T09:43:55;101373.59;;;12.00;28.30
65175;BME280;51761;42.126;24.752;2023-02-11T09:46:23;101382.84;;;12.08;27.60
65175;BME280;51761;42.126;24.752;2023-02-11T09:48:53;101369.44;;;11.77;27.98
65175;BME280;51761;42.126;24.752;2023-02-11T09:54:10;101350.06;;;12.19;28.00
65175;BME280;51761;42.126;24.752;2023-02-11T09:56:37;101359.06;;;12.52;27.99
65175;BME280;51761;42.126;24.752;2023-02-11T09:59:03;101352.97;;;12.36;26.57
65175;BME280;51761;42.126;24.752;2023-02-11T10:01:44;101343.88;;;12.63;27.60
65175;BME280;51761;42.126;24.752;2023-02-11T10:07:18;101332.06;;;12.20;27.66
65175;BME280;51761;42.126;24.752;2023-02-11T10:09:53;101323.69;;;12.23;27.21
65175;BME280;51761;42.126;24.752;2023-02-11T10:20:32;101294.53;;;12.35;27.57
65175;BME280;51761;42.126;24.752;2023-02-11T10:23:11;101296.53;;;12.41;27.55
65175;BME280;51761;42.126;24.752;2023-02-11T10:25:42;101275.34;;;12.44;29.30
65175;BME280;51761;42.126;24.752;2023-02-11T10:28:12;101285.03;;;12.70;27.08
65175;BME280;51761;42.126;24.752;2023-02-11T10:31:00;101270.63;;;12.86;27.07
65175;BME280;51761;42.126;24.752;2023-02-11T10:33:51;101251.81;;;12.90;26.74
65175;BME280;51761;42.126;24.752;2023-02-11T10:36:16;101244.56;;;12.68;26.41
65175;BME280;51761;42.126;24.752;2023-02-11T10:38:43;101260.25;;;13.04;26.28
65175;BME280;51761;42.126;24.752;2023-02-11T10:41:16;101246.63;;;13.02;24.96
65175;BME280;51761;42.126;24.752;2023-02-11T10:43:42;101229.00;;;12.95;24.81
65175;BME280;51761;42.126;24.752;2023-02-11T10:46:20;101244.19;;;12.87;26.30
65175;BME280;51761;42.126;24.752;2023-02-11T10:48:51;101211.31;;;12.70;24.84
65175;BME280;51761;42.126;24.752;2023-02-11T10:56:45;101225.75;;;12.82;26.24
65175;BME280;51761;42.126;24.752;2023-02-11T11:01:57;101212.94;;;13.30;26.92
65175;BME280;51761;42.126;24.752;2023-02-11T11:04:39;101202.50;;;13.31;25.54
65175;BME280;51761;42.126;24.752;2023-02-11T11:07:25;101202.50;;;13.48;24.63
65175;BME280;51761;42.126;24.752;2023-02-11T11:10:01;101203.38;;;13.07;25.03
65175;BME280;51761;42.126;24.752;2023-02-11T11:15:23;101184.13;;;13.05;24.53
65175;BME280;51761;42.126;24.752;2023-02-11T11:18:07;101170.50;;;13.00;25.14
65175;BME280;51761;42.126;24.752;2023-02-11T11:20:33;101166.03;;;13.31;24.11
65175;BME280;51761;42.126;24.752;2023-02-11T11:23:27;101167.97;;;13.58;24.17
65175;BME280;51761;42.126;24.752;2023-02-11T11:26:11;101166.28;;;13.82;23.20
65175;BME280;51761;42.126;24.752;2023-02-11T11:28:59;101153.38;;;13.95;23.01
65175;BME280;51761;42.126;24.752;2023-02-11T11:31:27;101150.19;;;13.93;21.22
65175;BME280;51761;42.126;24.752;2023-02-11T11:33:56;101131.84;;;13.67;22.13
65175;BME280;51761;42.126;24.752;2023-02-11T11:36:34;101131.34;;;13.90;22.75
65175;BME280;51761;42.126;24.752;2023-02-11T11:39:13;101138.91;;;13.96;23.66
65175;BME280;51761;42.126;24.752;2023-02-11T11:41:58;101132.53;;;13.92;22.38
65175;BME280;51761;42.126;24.752;2023-02-11T11:44:35;101103.31;;;13.76;22.04
65175;BME280;51761;42.126;24.752;2023-02-11T11:49:33;101107.00;;;14.34;22.45
65175;BME280;51761;42.126;24.752;2023-02-11T11:54:55;101096.59;;;13.56;22.21
65175;BME280;51761;42.126;24.752;2023-02-11T11:57:25;101094.50;;;13.70;22.63
65175;BME280;51761;42.126;24.752;2023-02-11T11:59:53;101073.88;;;13.22;21.81
65175;BME280;51761;42.126;24.752;2023-02-11T12:15:52;101082.97;;;13.51;21.88
65175;BME280;51761;42.126;24.752;2023-02-11T12:18:27;101076.41;;;13.82;22.53
65175;BME280;51761;42.126;24.752;2023-02-11T12:21:12;101072.19;;;14.18;22.36
65175;BME280;51761;42.126;24.752;2023-02-11T12:26:13;101062.91;;;14.27;22.20
65175;BME280;51761;42.126;24.752;2023-02-11T12:32:07;101058.13;;;14.18;20.31
65175;BME280;51761;42.126;24.752;2023-02-11T12:39:50;101053.94;;;13.85;22.88
65175;BME280;51761;42.126;24.752;2023-02-11T12:45:41;101046.06;;;13.59;21.07
65175;BME280;51761;42.126;24.752;2023-02-11T12:48:23;101047.47;;;13.92;22.85
65175;BME280;51761;42.126;24.752;2023-02-11T12:53:57;101038.91;;;13.44;21.41
65175;BME280;51761;42.126;24.752;2023-02-11T12:56:49;101038.16;;;13.37;21.22
65175;BME280;51761;42.126;24.752;2023-02-11T13:05:00;101028.41;;;13.59;20.50
65175;BME280;51761;42.126;24.752;2023-02-11T13:07:36;101023.72;;;13.35;21.76
65175;BME280;51761;42.126;24.752;2023-02-11T13:12:37;101006.41;;;13.50;21.07
65175;BME280;51761;42.126;24.752;2023-02-11T13:15:24;101008.78;;;13.52;20.67
65175;BME280;51761;42.126;24.752;2023-02-11T13:20:50;101006.41;;;13.47;20.80
65175;BME280;51761;42.126;24.752;2023-02-11T13:25:55;100997.66;;;13.34;21.64
65175;BME280;51761;42.126;24.752;2023-02-11T13:28:56;101000.16;;;13.11;20.32
65175;BME280;51761;42.126;24.752;2023-02-11T13:31:18;100998.13;;;13.19;20.32
65175;BME280;51761;42.126;24.752;2023-02-11T13:33:44;100969.69;;;13.13;20.45
65175;BME280;51761;42.126;24.752;2023-02-11T13:36:16;100997.38;;;13.15;19.93
65175;BME280;51761;42.126;24.752;2023-02-11T13:38:54;100972.59;;;12.89;20.30
65175;BME280;51761;42.126;24.752;2023-02-11T13:41:39;100987.31;;;13.21;20.00
65175;BME280;51761;42.126;24.752;2023-02-11T13:46:57;100984.63;;;12.93;20.04
65175;BME280;51761;42.126;24.752;2023-02-11T13:49:28;100980.56;;;13.01;20.18
65175;BME280;51761;42.126;24.752;2023-02-11T13:51:55;100968.63;;;12.72;21.17
65175;BME280;51761;42.126;24.752;2023-02-11T13:54:25;100964.63;;;12.70;23.17
65175;BME280;51761;42.126;24.752;2023-02-11T13:57:26;100960.94;;;13.04;20.87
65175;BME280;51761;42.126;24.752;2023-02-11T13:59:56;100963.34;;;12.99;20.36
65175;BME280;51761;42.126;24.752;2023-02-11T14:05:29;100959.41;;;12.79;20.91
65175;BME280;51761;42.126;24.752;2023-02-11T14:08:18;100923.47;;;12.46;21.03
65175;BME280;51761;42.126;24.752;2023-02-11T14:14:25;100949.38;;;12.85;21.06
65175;BME280;51761;42.126;24.752;2023-02-11T14:19:33;100941.34;;;12.97;21.72
65175;BME280;51761;42.126;24.752;2023-02-11T14:27:08;100930.72;;;12.33;22.20
65175;BME280;51761;42.126;24.752;2023-02-11T14:29:46;100940.75;;;12.20;21.75
65175;BME280;51761;42.126;24.752;2023-02-11T14:40:50;100943.97;;;11.84;21.47
65175;BME280;51761;42.126;24.752;2023-02-11T14:43:23;100931.16;;;11.62;22.47
65175;BME280;51761;42.126;24.752;2023-02-11T14:45:52;100918.75;;;11.59;22.54
65175;BME280;51761;42.126;24.752;2023-02-11T14:48:19;100925.06;;;11.21;21.96
65175;BME280;51761;42.126;24.752;2023-02-11T14:50:52;100904.28;;;11.26;23.63
65175;BME280;51761;42.126;24.752;2023-02-11T14:53:23;100892.31;;;11.29;23.60
65175;BME280;51761;42.126;24.752;2023-02-11T14:55:51;100921.09;;;11.36;22.37
65175;BME280;51761;42.126;24.752;2023-02-11T15:00:59;100918.13;;;10.77;22.78
65175;BME280;51761;42.126;24.752;2023-02-11T15:03:41;100916.50;;;10.69;22.31
65175;BME280;51761;42.126;24.752;2023-02-11T15:06:15;100923.19;;;10.51;23.66
65175;BME280;51761;42.126;24.752;2023-02-11T15:08:46;100890.28;;;10.20;22.84
65175;BME280;51761;42.126;24.752;2023-02-11T15:11:15;100915.38;;;10.09;23.34
65175;BME280;51761;42.126;24.752;2023-02-11T15:13:42;100890.00;;;9.81;23.90
65175;BME280;51761;42.126;24.752;2023-02-11T15:16:22;100904.63;;;9.64;23.49
65175;BME280;51761;42.126;24.752;2023-02-11T15:18:52;100906.84;;;9.45;24.41
65175;BME280;51761;42.126;24.752;2023-02-11T15:21:32;100906.50;;;9.14;25.41